Time;durP1;ratioP1;P1;durP2;ratioP2;P2;SDS_P1;SDS_P2;PMS_P1;PMS_P2;Temp;Humidity;BMP_temperature;BMP_pressure;BME280_temperature;BME280_humidity;BME280_pressure;Samples;Min_cycle;Max_cycle;Signal;HPM_P1;HPM_P2
2024/02/13 06:01:47;;;;;;;7.60;2.40;;;5.60;88.10;;;;;;4298969;23;20622;-73
2024/02/13 06:03:54;;;;;;;7.40;2.10;;;5.60;88.30;;;;;;4068909;29;20056;-75
2024/02/13 06:05:56;;;;;;;7.85;1.90;;;5.60;88.20;;;;;;4069497;29;20044;-73
2024/02/13 06:07:58;;;;;;;8.52;2.22;;;5.60;88.10;;;;;;4069398;29;20084;-75
2024/02/13 06:10:00;;;;;;;7.35;1.85;;;5.60;88.20;;;;;;4069424;29;20044;-75
2024/02/13 06:12:02;;;;;;;4.90;1.77;;;5.60;88.30;;;;;;4069359;29;20048;-75
2024/02/13 06:14:03;;;;;;;6.65;1.67;;;5.60;88.30;;;;;;4069197;29;20078;-77
2024/02/13 06:16:05;;;;;;;7.50;1.88;;;5.70;88.20;;;;;;4069394;29;20048;-75
2024/02/13 06:18:08;;;;;;;5.32;2.00;;;5.70;88.00;;;;;;4069372;29;20056;-76
2024/02/13 06:20:12;;;;;;;8.73;1.88;;;5.70;87.90;;;;;;4069161;29;20107;-75
2024/02/13 06:22:14;;;;;;;7.07;1.80;;;5.60;88.00;;;;;;4069351;29;20115;-75
2024/02/13 06:24:16;;;;;;;7.00;1.77;;;5.60;88.20;;;;;;4069111;29;20107;-75
2024/02/13 06:26:18;;;;;;;6.63;1.92;;;5.60;88.30;;;;;;4069152;29;20052;-76
2024/02/13 06:28:21;;;;;;;8.38;2.10;;;5.60;88.20;;;;;;4069242;29;20051;-75
2024/02/13 06:30:23;;;;;;;8.43;2.10;;;5.70;88.00;;;;;;4069234;29;20150;-75
2024/02/13 06:32:25;;;;;;;7.28;1.80;;;5.60;87.80;;;;;;4069292;29;20442;-75
2024/02/13 06:34:27;;;;;;;8.23;2.00;;;5.70;87.90;;;;;;4070362;29;20119;-74
2024/02/13 06:36:29;;;;;;;7.13;1.85;;;5.70;87.80;;;;;;4069556;29;20052;-76
2024/02/13 06:38:34;;;;;;;6.70;1.80;;;5.70;87.40;;;;;;4069017;29;20387;-76
2024/02/13 06:40:36;;;;;;;8.43;2.20;;;5.80;87.20;;;;;;4069102;29;20062;-75
2024/02/13 06:42:37;;;;;;;8.40;1.90;;;5.80;87.10;;;;;;4069006;29;20718;-75
2024/02/13 06:44:40;;;;;;;6.03;1.75;;;5.80;87.00;;;;;;4069047;29;20060;-74
2024/02/13 06:46:42;;;;;;;11.43;2.35;;;5.80;86.90;;;;;;4069243;29;20155;-75
2024/02/13 06:48:45;;;;;;;7.00;2.10;;;5.90;86.70;;;;;;4068879;29;20470;-75
2024/02/13 06:50:49;;;;;;;9.10;2.20;;;5.80;86.90;;;;;;4069134;29;20075;-76
2024/02/13 06:52:52;;;;;;;8.38;1.90;;;5.80;86.90;;;;;;4069016;29;20076;-75
2024/02/13 06:54:54;;;;;;;11.02;2.15;;;5.90;86.80;;;;;;4068563;29;20052;-74
2024/02/13 06:56:55;;;;;;;5.57;1.35;;;5.90;86.80;;;;;;4069027;29;20398;-74
2024/02/13 06:58:57;;;;;;;7.30;1.60;;;5.90;86.40;;;;;;4068862;29;20044;-76
2024/02/13 07:00:58;;;;;;;5.85;1.40;;;5.90;86.20;;;;;;4068670;29;20063;-75
2024/02/13 07:03:00;;;;;;;8.00;1.63;;;6.00;86.20;;;;;;4068933;29;20087;-76
2024/02/13 07:05:01;;;;;;;6.22;1.25;;;6.00;85.90;;;;;;4068884;29;20048;-75
2024/02/13 07:07:05;;;;;;;6.53;1.58;;;6.00;85.90;;;;;;4069052;29;20103;-74
2024/02/13 07:09:09;;;;;;;8.32;1.45;;;6.00;85.70;;;;;;4069041;29;20048;-76
2024/02/13 07:11:10;;;;;;;7.32;1.60;;;6.00;85.60;;;;;;4068995;29;20052;-75
2024/02/13 07:13:12;;;;;;;9.10;1.50;;;6.10;85.80;;;;;;4068949;29;20110;-73
2024/02/13 07:15:14;;;;;;;6.60;1.40;;;6.10;85.70;;;;;;4068972;29;20471;-75
2024/02/13 07:17:16;;;;;;;6.50;1.60;;;6.10;85.60;;;;;;4068944;29;20048;-74
2024/02/13 07:19:18;;;;;;;5.50;1.45;;;6.10;85.60;;;;;;4068843;29;20628;-74
2024/02/13 07:21:20;;;;;;;6.82;1.75;;;6.10;85.50;;;;;;4068981;29;20545;-76
2024/02/13 07:23:23;;;;;;;7.63;1.17;;;6.10;85.30;;;;;;4068907;29;20474;-76
2024/02/13 07:25:25;;;;;;;6.03;1.50;;;6.10;85.20;;;;;;4068857;29;20052;-75
2024/02/13 07:27:28;;;;;;;6.25;1.65;;;6.20;85.10;;;;;;4068510;29;20044;-75
2024/02/13 07:29:30;;;;;;;7.05;1.40;;;6.20;85.00;;;;;;4068612;29;20052;-76
2024/02/13 07:31:34;;;;;;;7.05;1.70;;;6.20;84.80;;;;;;4068742;29;20402;-76
2024/02/13 07:33:36;;;;;;;5.88;1.60;;;6.20;84.80;;;;;;4068506;29;20152;-77
2024/02/13 07:35:38;;;;;;;9.45;1.88;;;6.30;84.60;;;;;;4069987;29;20387;-75
2024/02/13 07:37:39;;;;;;;7.88;1.50;;;6.30;84.40;;;;;;4071984;29;20478;-76
2024/02/13 07:39:43;;;;;;;7.25;1.50;;;6.30;84.40;;;;;;4072503;29;20052;-76
2024/02/13 07:41:45;;;;;;;5.38;1.50;;;6.30;84.40;;;;;;4073765;29;20048;-75
2024/02/13 07:43:47;;;;;;;8.25;2.15;;;6.30;84.40;;;;;;4058221;29;20063;-74
2024/02/13 07:45:48;;;;;;;8.63;2.92;;;5.90;85.50;;;;;;4056424;29;20052;-75
2024/02/13 07:47:51;;;;;;;8.50;3.13;;;5.60;86.10;;;;;;4055947;29;20501;-73
2024/02/13 07:49:53;;;;;;;11.88;3.20;;;5.40;86.10;;;;;;4055833;29;20048;-75
2024/02/13 07:51:56;;;;;;;8.18;3.65;;;5.20;87.80;;;;;;4055833;29;20431;-73
2024/02/13 07:53:58;;;;;;;8.93;3.33;;;5.30;87.50;;;;;;4055937;29;20112;-74
2024/02/13 07:56:01;;;;;;;9.95;3.13;;;5.20;87.60;;;;;;4055929;29;20056;-77
2024/02/13 07:58:04;;;;;;;8.25;3.10;;;5.20;88.00;;;;;;4055858;29;20045;-76
2024/02/13 08:00:08;;;;;;;11.38;3.35;;;5.20;87.30;;;;;;4055842;29;20052;-75
2024/02/13 08:02:10;;;;;;;9.32;4.10;;;5.20;87.70;;;;;;4069842;29;20052;-75
2024/02/13 08:04:14;;;;;;;9.35;4.00;;;5.20;87.70;;;;;;4071226;29;20067;-73
2024/02/13 08:06:16;;;;;;;11.35;3.45;;;4.90;88.40;;;;;;4071339;29;20112;-76
2024/02/13 08:08:18;;;;;;;10.15;3.55;;;4.80;89.70;;;;;;4071194;29;20099;-75
2024/02/13 08:10:20;;;;;;;8.90;3.22;;;4.80;90.00;;;;;;4071461;29;20056;-75
2024/02/13 08:12:24;;;;;;;11.18;3.47;;;4.90;90.00;;;;;;4071166;29;20052;-77
2024/02/13 08:14:25;;;;;;;8.80;3.38;;;5.00;89.80;;;;;;4071215;29;20087;-76
2024/02/13 08:16:29;;;;;;;10.85;3.97;;;5.10;89.30;;;;;;4071122;29;20048;-76
2024/02/13 08:18:31;;;;;;;8.15;3.60;;;5.30;88.90;;;;;;4071045;29;20051;-75
2024/02/13 08:20:32;;;;;;;8.55;3.40;;;5.30;88.40;;;;;;4071233;29;20103;-76
2024/02/13 08:22:35;;;;;;;9.80;2.90;;;5.40;88.00;;;;;;4071119;29;20056;-73
2024/02/13 08:24:37;;;;;;;12.95;3.60;;;5.50;87.80;;;;;;4070839;29;20058;-73
2024/02/13 08:26:39;;;;;;;8.65;3.30;;;5.60;87.60;;;;;;4071019;29;20056;-76
2024/02/13 08:28:44;;;;;;;7.68;3.35;;;5.60;87.30;;;;;;4071020;29;20112;-76
2024/02/13 08:30:47;;;;;;;7.65;3.05;;;5.70;87.20;;;;;;4071197;29;20051;-74
2024/02/13 08:32:49;;;;;;;8.20;3.15;;;5.70;87.10;;;;;;4071101;29;20470;-75
2024/02/13 08:34:52;;;;;;;6.88;3.20;;;5.80;86.90;;;;;;4071058;29;20056;-74
2024/02/13 08:36:55;;;;;;;12.98;5.45;;;5.80;86.80;;;;;;4070968;29;20044;-76
2024/02/13 08:38:57;;;;;;;11.82;3.70;;;5.90;86.80;;;;;;4071064;29;20052;-75
2024/02/13 08:40:58;;;;;;;8.57;3.17;;;5.90;86.80;;;;;;4070841;29;20060;-78
2024/02/13 08:43:00;;;;;;;9.60;3.55;;;5.80;87.30;;;;;;4071826;29;20568;-76
2024/02/13 08:45:03;;;;;;;10.60;3.40;;;5.80;88.40;;;;;;4074913;29;20048;-77
2024/02/13 08:47:06;;;;;;;10.25;3.15;;;5.70;88.90;;;;;;4074342;29;20052;-76
2024/02/13 08:49:08;;;;;;;9.48;3.15;;;5.80;88.80;;;;;;4074073;29;20123;-76
2024/02/13 08:51:10;;;;;;;8.10;2.63;;;5.80;88.60;;;;;;4072983;29;20060;-77
2024/02/13 08:53:12;;;;;;;9.35;2.70;;;5.90;88.10;;;;;;4073235;29;20100;-76
2024/02/13 08:55:14;;;;;;;7.38;2.65;;;6.00;88.00;;;;;;4074761;29;20083;-77
2024/02/13 08:57:16;;;;;;;9.85;3.22;;;6.10;88.20;;;;;;4086304;29;20048;-76
2024/02/13 08:59:18;;;;;;;9.02;2.67;;;6.10;87.30;;;;;;4086272;29;20048;-77
2024/02/13 09:01:21;;;;;;;8.93;2.38;;;6.20;86.70;;;;;;4085939;29;20063;-77
2024/02/13 09:03:24;;;;;;;10.40;2.70;;;6.20;86.70;;;;;;4086230;29;20056;-76
2024/02/13 09:05:26;;;;;;;8.90;2.22;;;6.30;86.50;;;;;;4075402;29;20058;-77
2024/02/13 09:07:28;;;;;;;8.10;2.55;;;6.30;85.50;;;;;;4081012;29;20494;-75
2024/02/13 09:09:32;;;;;;;6.47;2.35;;;6.30;85.20;;;;;;4086009;29;20051;-77
2024/02/13 09:11:34;;;;;;;6.93;2.10;;;6.40;85.20;;;;;;4085983;29;20048;-74
2024/02/13 09:13:36;;;;;;;8.93;2.30;;;6.50;85.20;;;;;;4086030;29;20387;-74
2024/02/13 09:15:38;;;;;;;6.43;1.92;;;6.50;84.70;;;;;;4085931;29;20095;-77
2024/02/13 09:17:43;;;;;;;6.72;2.00;;;6.50;84.80;;;;;;4079798;29;20044;-76
2024/02/13 09:19:45;;;;;;;5.13;1.73;;;6.60;84.70;;;;;;4070092;29;20111;-77
2024/02/13 09:21:47;;;;;;;5.63;1.40;;;6.60;84.30;;;;;;4069882;29;20067;-74
2024/02/13 09:23:49;;;;;;;7.65;1.42;;;6.70;84.00;;;;;;4070201;29;20052;-74
2024/02/13 09:25:51;;;;;;;7.10;1.58;;;6.80;83.60;;;;;;4070103;29;20055;-76
2024/02/13 09:27:54;;;;;;;8.30;1.55;;;6.80;83.00;;;;;;4070090;29;20044;-76
2024/02/13 09:29:56;;;;;;;6.68;1.40;;;6.90;81.70;;;;;;4070000;29;20103;-76
2024/02/13 09:31:58;;;;;;;5.43;1.60;;;6.90;81.50;;;;;;4070018;29;20044;-74
2024/02/13 09:34:00;;;;;;;8.68;1.92;;;6.90;81.50;;;;;;4070131;29;20503;-75
2024/02/13 09:36:05;;;;;;;10.25;1.77;;;7.00;81.30;;;;;;4070040;29;20458;-77
2024/02/13 09:38:08;;;;;;;5.80;1.48;;;7.10;81.30;;;;;;4069907;29;20402;-75
2024/02/13 09:40:14;;;;;;;5.82;1.65;;;7.10;80.90;;;;;;4067562;29;20044;-76
2024/02/13 09:42:16;;;;;;;;;;;7.20;81.30;;;;;;4070039;29;20469;-77
2024/02/13 09:44:19;;;;;;;5.07;1.60;;;7.20;80.80;;;;;;4069261;29;20356;-75
2024/02/13 09:46:23;;;;;;;9.98;2.20;;;7.30;81.00;;;;;;4069401;29;20533;-77
2024/02/13 09:48:24;;;;;;;10.10;2.33;;;7.30;80.20;;;;;;4069208;29;20056;-76
2024/02/13 09:50:33;;;;;;;7.32;2.20;;;7.30;80.20;;;;;;4068959;29;20103;-76
2024/02/13 09:52:37;;;;;;;5.93;1.75;;;7.40;80.20;;;;;;4069115;29;20060;-74
2024/02/13 09:54:42;;;;;;;6.97;1.80;;;7.50;80.00;;;;;;4069452;29;20052;-76
2024/02/13 09:56:44;;;;;;;8.07;2.00;;;7.50;79.50;;;;;;4069566;29;20143;-76
2024/02/13 09:58:46;;;;;;;9.35;2.20;;;7.50;78.90;;;;;;4068926;29;20104;-74
2024/02/13 10:00:47;;;;;;;9.02;2.67;;;7.50;78.90;;;;;;4067105;29;20076;-77
2024/02/13 10:02:50;;;;;;;7.20;2.50;;;7.50;78.60;;;;;;4070304;29;20108;-75
2024/02/13 10:04:52;;;;;;;6.40;2.40;;;7.60;78.80;;;;;;4073217;29;20055;-77
2024/02/13 10:06:57;;;;;;;9.13;2.70;;;7.70;78.30;;;;;;4069286;29;20048;-76
2024/02/13 10:09:01;;;;;;;7.07;2.10;;;7.60;77.50;;;;;;4069068;29;20388;-75
2024/02/13 10:11:05;;;;;;;6.78;2.30;;;7.70;77.50;;;;;;4068575;29;20103;-75
2024/02/13 10:13:09;;;;;;;6.22;2.00;;;7.70;76.60;;;;;;4068575;29;20040;-76
2024/02/13 10:15:11;;;;;;;6.15;1.75;;;7.70;76.10;;;;;;4069359;29;20063;-75
2024/02/13 10:17:14;;;;;;;5.72;2.25;;;7.80;76.40;;;;;;4069491;29;20471;-75
2024/02/13 10:19:18;;;;;;;9.95;2.40;;;7.80;76.10;;;;;;4068958;29;20044;-75
2024/02/13 10:21:22;;;;;;;7.25;2.10;;;7.80;75.30;;;;;;4068999;29;20052;-76
2024/02/13 10:23:29;;;;;;;7.68;1.92;;;7.80;75.50;;;;;;4069421;29;20071;-77
2024/02/13 10:25:31;;;;;;;6.40;2.10;;;7.90;74.90;;;;;;4068841;29;20052;-75
2024/02/13 10:27:34;;;;;;;7.72;2.30;;;7.90;75.10;;;;;;4068942;29;20058;-74
2024/02/13 10:29:43;;;;;;;6.38;1.75;;;7.90;75.00;;;;;;4068926;29;20473;-75
2024/02/13 10:31:45;;;;;;;5.45;1.80;;;7.90;74.00;;;;;;4068853;29;20504;-75
2024/02/13 10:33:46;;;;;;;4.72;1.58;;;8.00;74.30;;;;;;4068776;29;20100;-76
2024/02/13 10:35:52;;;;;;;7.18;1.88;;;8.00;74.40;;;;;;4068818;29;20052;-76
2024/02/13 10:37:54;;;;;;;;;;;8.10;74.00;;;;;;4069176;29;20059;-77
2024/02/13 10:40:00;;;;;;;5.55;1.73;;;8.10;73.10;;;;;;4068428;29;19949;-75
2024/02/13 10:42:07;;;;;;;6.82;1.38;;;8.20;72.60;;;;;;4068487;29;20395;-76
2024/02/13 10:44:11;;;;;;;7.28;1.80;;;8.20;71.90;;;;;;4068577;29;20454;-76
2024/02/13 10:46:14;;;;;;;7.95;2.13;;;8.20;72.20;;;;;;4068626;29;20236;-76
2024/02/13 10:48:39;;;;;;;5.00;1.63;;;8.20;72.40;;;;;;4068398;29;20052;-75
2024/02/13 10:50:43;;;;;;;6.43;2.00;;;8.20;72.70;;;;;;4068538;29;20127;-77
2024/02/13 10:52:47;;;;;;;9.77;1.90;;;8.30;72.50;;;;;;4068607;29;20098;-76
2024/02/13 10:54:50;;;;;;;5.57;1.90;;;8.40;72.50;;;;;;4068373;29;20075;-75
2024/02/13 10:56:54;;;;;;;6.57;1.75;;;8.50;72.60;;;;;;4068389;29;20056;-76
2024/02/13 10:58:56;;;;;;;6.07;1.73;;;8.50;71.00;;;;;;4052865;29;20048;-77
2024/02/13 11:01:00;;;;;;;4.88;1.52;;;8.40;71.20;;;;;;4052738;29;20068;-76
2024/02/13 11:03:02;;;;;;;6.50;1.80;;;8.50;70.70;;;;;;4061915;29;20080;-76
2024/02/13 11:05:06;;;;;;;7.43;1.88;;;8.50;70.00;;;;;;4068502;29;20060;-77
2024/02/13 11:07:11;;;;;;;9.13;2.20;;;8.50;69.90;;;;;;4067957;29;20055;-77
2024/02/13 11:09:13;;;;;;;5.20;1.70;;;8.60;69.50;;;;;;4068400;29;20131;-75
2024/02/13 11:11:16;;;;;;;5.07;1.73;;;8.60;69.90;;;;;;4070392;29;20304;-75
2024/02/13 11:13:23;;;;;;;5.50;1.50;;;8.70;69.30;;;;;;4071146;29;20062;-78
2024/02/13 11:15:29;;;;;;;6.90;1.67;;;8.70;69.00;;;;;;4082468;29;20078;-76
2024/02/13 11:17:31;;;;;;;4.97;1.80;;;8.70;68.80;;;;;;4070706;29;20091;-76
2024/02/13 11:19:40;;;;;;;4.47;1.60;;;8.70;68.90;;;;;;4071482;29;20048;-78
2024/02/13 11:21:42;;;;;;;5.22;1.80;;;8.90;69.20;;;;;;4071704;29;20127;-77
2024/02/13 11:23:53;;;;;;;5.82;1.83;;;8.90;68.70;;;;;;4054568;29;20052;-77
2024/02/13 11:25:59;;;;;;;7.00;1.70;;;9.00;68.50;;;;;;4071528;29;20112;-78
2024/02/13 11:28:06;;;;;;;;;;;9.10;67.80;;;;;;4072005;29;20542;-75
2024/02/13 11:30:09;;;;;;;4.85;1.40;;;9.20;66.70;;;;;;4081434;29;19923;-75
2024/02/13 11:32:11;;;;;;;5.57;1.48;;;9.30;64.10;;;;;;4081610;29;20055;-76
2024/02/13 11:34:13;;;;;;;6.00;1.40;;;9.40;63.80;;;;;;4070930;29;20080;-76
2024/02/13 11:36:15;;;;;;;6.65;1.30;;;9.40;63.40;;;;;;4070993;29;20119;-74
2024/02/13 11:38:19;;;;;;;4.57;1.70;;;9.50;63.90;;;;;;4070862;29;20061;-78
2024/02/13 11:40:21;;;;;;;7.32;1.60;;;9.60;64.10;;;;;;4071099;29;20421;-76
2024/02/13 11:42:25;;;;;;;8.75;1.70;;;9.70;64.00;;;;;;4071337;29;20043;-77
2024/02/13 11:44:27;;;;;;;4.45;1.50;;;9.70;62.60;;;;;;4071071;29;20135;-76
2024/02/13 11:46:31;;;;;;;4.47;1.50;;;9.60;62.80;;;;;;4071238;29;20386;-75
2024/02/13 11:48:33;;;;;;;4.85;1.75;;;9.70;63.30;;;;;;4070941;29;20496;-78
2024/02/13 11:50:37;;;;;;;5.15;1.48;;;9.80;63.60;;;;;;4071233;29;20402;-78
2024/02/13 11:52:39;;;;;;;4.88;1.45;;;9.90;62.40;;;;;;4071061;29;20052;-78
2024/02/13 11:54:40;;;;;;;5.00;1.35;;;9.80;61.60;;;;;;4071093;29;20059;-75
2024/02/13 11:56:43;;;;;;;6.05;1.50;;;9.80;62.60;;;;;;4071030;29;20052;-77
2024/02/13 11:58:46;;;;;;;4.63;1.30;;;9.80;61.20;;;;;;4071063;29;20108;-74
2024/02/13 12:01:03;;;;;;;5.90;1.50;;;9.90;61.30;;;;;;4070802;29;20554;-77
2024/02/13 12:03:07;;;;;;;5.10;1.45;;;10.00;61.10;;;;;;4069365;29;20040;-76
2024/02/13 12:05:12;;;;;;;5.53;1.60;;;10.30;60.10;;;;;;4069390;29;20442;-77
2024/02/13 12:07:13;;;;;;;5.43;1.30;;;10.40;59.90;;;;;;4068141;29;20079;-76
2024/02/13 12:09:15;;;;;;;5.18;1.45;;;10.50;58.60;;;;;;4069642;29;20044;-77
2024/02/13 12:11:19;;;;;;;4.75;1.35;;;10.40;59.00;;;;;;4059565;29;20060;-75
2024/02/13 12:13:22;;;;;;;5.60;1.67;;;10.40;59.40;;;;;;4070703;29;20275;-75
2024/02/13 12:15:24;;;;;;;5.82;1.27;;;10.50;59.60;;;;;;4070471;29;20520;-77
2024/02/13 12:17:26;;;;;;;6.13;1.63;;;10.60;59.30;;;;;;4069404;29;20569;-74
2024/02/13 12:19:28;;;;;;;6.25;1.60;;;10.70;58.70;;;;;;4061709;29;20052;-75
2024/02/13 12:21:32;;;;;;;5.63;1.52;;;10.70;58.90;;;;;;4055253;29;20041;-75
2024/02/13 12:23:33;;;;;;;5.63;1.27;;;10.80;58.60;;;;;;4055128;29;20077;-74
2024/02/13 12:25:36;;;;;;;5.80;1.58;;;10.70;58.20;;;;;;4055970;29;20056;-75
2024/02/13 12:27:38;;;;;;;4.15;1.23;;;10.70;58.60;;;;;;4055150;29;20088;-75
2024/02/13 12:29:41;;;;;;;4.00;1.00;;;10.50;56.70;;;;;;4055072;29;20049;-77
2024/02/13 12:31:42;;;;;;;5.63;1.50;;;10.40;57.20;;;;;;4062303;29;20052;-77
2024/02/13 12:33:47;;;;;;;6.10;1.42;;;10.70;57.90;;;;;;4068967;29;20104;-76
2024/02/13 12:36:01;;;;;;;3.50;1.10;;;10.80;56.70;;;;;;4062751;29;20075;-77
2024/02/13 12:38:12;;;;;;;5.93;1.35;;;10.70;56.40;;;;;;4055421;29;20119;-74
2024/02/13 12:40:17;;;;;;;3.33;1.20;;;10.60;56.80;;;;;;4056750;29;20491;-77
2024/02/13 12:42:19;;;;;;;4.07;1.00;;;10.70;57.70;;;;;;4056073;29;20131;-75
2024/02/13 12:44:21;;;;;;;4.93;1.20;;;10.80;57.40;;;;;;4054946;29;20388;-77
2024/02/13 12:46:27;;;;;;;3.40;0.98;;;11.00;56.10;;;;;;4054642;29;20057;-76
2024/02/13 12:48:31;;;;;;;;;;;10.90;55.20;;;;;;4056319;29;20044;-76
2024/02/13 12:50:33;;;;;;;4.78;1.05;;;11.10;55.10;;;;;;4055076;29;19977;-76
2024/02/13 12:52:37;;;;;;;5.93;1.13;;;11.30;53.80;;;;;;4054752;29;20096;-77
2024/02/13 12:54:39;;;;;;;4.32;1.33;;;11.40;54.80;;;;;;4057590;29;20446;-75
2024/02/13 12:56:41;;;;;;;4.63;1.25;;;11.50;55.10;;;;;;4054860;29;20080;-78
2024/02/13 12:58:43;;;;;;;4.60;1.23;;;11.60;55.80;;;;;;4054615;29;20052;-78
2024/02/13 13:00:47;;;;;;;4.43;1.17;;;11.80;55.00;;;;;;4056013;29;20104;-77
2024/02/13 13:02:49;;;;;;;6.22;1.30;;;12.10;54.70;;;;;;4069802;29;20055;-74
2024/02/13 13:04:52;;;;;;;4.40;1.23;;;12.40;53.60;;;;;;4069931;29;20132;-74
2024/02/13 13:06:54;;;;;;;3.13;1.00;;;12.60;54.10;;;;;;4070005;29;20091;-76
2024/02/13 13:08:58;;;;;;;4.88;1.10;;;12.80;52.10;;;;;;4070223;29;20080;-75
2024/02/13 13:11:00;;;;;;;3.78;1.08;;;12.50;51.20;;;;;;4069910;29;20060;-75
2024/02/13 13:13:06;;;;;;;5.13;1.13;;;12.50;51.40;;;;;;4069964;29;20044;-76
2024/02/13 13:15:09;;;;;;;4.38;1.10;;;12.50;51.30;;;;;;4069242;29;20048;-78
2024/02/13 13:17:11;;;;;;;3.95;1.17;;;12.90;51.60;;;;;;4070110;29;20107;-76
2024/02/13 13:19:14;;;;;;;3.85;1.20;;;13.20;50.90;;;;;;4069572;29;20082;-76
2024/02/13 13:21:15;;;;;;;3.63;0.90;;;13.40;50.10;;;;;;4069661;29;20522;-75
2024/02/13 13:23:20;;;;;;;4.10;1.05;;;13.70;49.10;;;;;;4069537;29;20068;-74
2024/02/13 13:25:26;;;;;;;4.13;1.00;;;13.80;48.70;;;;;;4069551;29;20052;-77
2024/02/13 13:27:28;;;;;;;3.60;1.15;;;13.60;48.80;;;;;;4069908;29;20052;-74
2024/02/13 13:29:30;;;;;;;4.68;1.10;;;13.50;49.40;;;;;;4069477;29;20048;-75
2024/02/13 13:31:31;;;;;;;4.38;0.85;;;12.80;50.20;;;;;;4069412;29;20090;-76
2024/02/13 13:33:34;;;;;;;4.55;0.93;;;12.50;51.10;;;;;;4068561;29;20056;-75
2024/02/13 13:35:35;;;;;;;5.00;1.02;;;12.20;52.10;;;;;;4069571;29;20480;-76
2024/02/13 13:37:37;;;;;;;3.65;0.80;;;11.90;52.20;;;;;;4069388;29;20455;-76
2024/02/13 13:39:39;;;;;;;5.10;0.95;;;12.00;52.60;;;;;;4069274;29;20474;-74
2024/02/13 13:41:41;;;;;;;3.75;1.10;;;11.80;51.60;;;;;;4069381;29;20432;-76
2024/02/13 13:43:46;;;;;;;3.33;0.98;;;16.00;47.70;;;;;;4069428;29;20430;-76
2024/02/13 13:45:59;;;;;;;4.80;1.08;;;18.20;39.80;;;;;;4069231;29;20059;-78
2024/02/13 13:48:15;;;;;;;3.17;1.40;;;15.10;42.70;;;;;;4069656;29;20044;-77
2024/02/13 13:50:18;;;;;;;3.13;1.00;;;19.30;38.40;;;;;;4069185;29;20052;-75
2024/02/13 13:52:19;;;;;;;2.65;1.00;;;17.70;38.10;;;;;;4068951;29;20048;-74
2024/02/13 13:54:22;;;;;;;3.67;1.20;;;17.80;41.60;;;;;;4069135;29;20530;-76
2024/02/13 13:56:24;;;;;;;3.92;1.02;;;20.10;36.90;;;;;;4068996;29;20111;-77
2024/02/13 13:58:28;;;;;;;2.65;1.08;;;22.10;33.00;;;;;;4069365;29;20044;-75
2024/02/13 14:00:32;;;;;;;3.83;1.20;;;23.40;30.00;;;;;;4069031;29;20048;-77
2024/02/13 14:02:34;;;;;;;4.22;1.13;;;23.30;29.30;;;;;;4068450;29;20059;-75
2024/02/13 14:04:36;;;;;;;4.80;1.15;;;22.10;29.70;;;;;;4068678;29;20091;-76
2024/02/13 14:06:39;;;;;;;3.53;0.90;;;19.90;32.50;;;;;;4069077;29;20048;-77
2024/02/13 14:08:41;;;;;;;2.47;1.00;;;18.10;36.50;;;;;;4068987;29;20486;-74
2024/02/13 14:10:44;;;;;;;2.92;0.90;;;16.50;39.10;;;;;;4068716;29;20171;-77
2024/02/13 14:12:46;;;;;;;4.45;1.08;;;15.30;41.80;;;;;;4068767;29;20052;-75
2024/02/13 14:14:51;;;;;;;4.40;1.17;;;14.80;43.60;;;;;;4068714;29;20044;-78
2024/02/13 14:16:54;;;;;;;6.10;2.75;;;16.40;42.20;;;;;;4068571;29;20139;-76
2024/02/13 14:18:57;;;;;;;4.85;2.33;;;18.70;41.00;;;;;;4068717;29;20051;-77
2024/02/13 14:21:00;;;;;;;4.65;1.73;;;22.20;32.70;;;;;;4068808;29;20410;-75
2024/02/13 14:23:02;;;;;;;3.92;1.13;;;19.80;33.10;;;;;;4068561;29;20665;-76
2024/02/13 14:25:07;;;;;;;5.80;4.72;;;18.70;35.00;;;;;;4068716;29;20048;-77
2024/02/13 14:27:10;;;;;;;4.45;4.05;;;22.50;32.00;;;;;;4068536;29;20083;-76
2024/02/13 14:29:13;;;;;;;4.22;1.00;;;23.40;27.90;;;;;;4068839;29;20092;-76
2024/02/13 14:31:17;;;;;;;2.85;0.77;;;19.40;31.60;;;;;;4068967;29;20048;-76
2024/02/13 14:33:20;;;;;;;3.15;0.95;;;17.10;36.50;;;;;;4068613;29;20052;-76
2024/02/13 14:35:22;;;;;;;6.82;6.13;;;16.40;39.20;;;;;;4068959;29;20413;-77
2024/02/13 14:37:25;;;;;;;8.75;8.05;;;19.90;35.30;;;;;;4068560;29;20099;-78
2024/02/13 14:39:27;;;;;;;4.38;1.00;;;22.50;30.60;;;;;;4068688;29;20048;-76
2024/02/13 14:41:30;;;;;;;5.90;1.00;;;21.20;29.60;;;;;;4068577;29;20067;-78
2024/02/13 14:43:32;;;;;;;4.75;1.75;;;20.70;30.50;;;;;;4068268;29;20418;-76
2024/02/13 14:45:36;;;;;;;3.67;0.90;;;20.50;30.80;;;;;;4068269;29;20056;-78
2024/02/13 14:47:40;;;;;;;5.63;5.05;;;17.50;35.00;;;;;;4068773;29;20075;-76
2024/02/13 14:49:43;;;;;;;5.93;5.43;;;18.80;35.30;;;;;;4068237;29;20103;-77
2024/02/13 14:51:45;;;;;;;6.38;4.40;;;20.30;33.20;;;;;;4068423;29;20055;-77
2024/02/13 14:53:48;;;;;;;7.55;6.95;;;21.70;30.60;;;;;;4068256;29;20093;-78
2024/02/13 14:55:50;;;;;;;3.25;1.35;;;22.30;28.80;;;;;;4068462;29;20059;-78
2024/02/13 14:57:52;;;;;;;9.00;8.13;;;21.20;29.40;;;;;;4068606;29;20513;-77
2024/02/13 14:59:55;;;;;;;4.32;1.60;;;20.70;30.50;;;;;;4068033;29;20107;-78
2024/02/13 15:01:57;;;;;;;454.10;422.15;;;18.90;32.20;;;;;;4068285;29;20121;-78
2024/02/13 15:04:02;;;;;;;39.38;37.33;;;19.00;32.70;;;;;;4068240;29;20051;-78
2024/02/13 15:06:04;;;;;;;6.78;4.00;;;20.20;31.60;;;;;;4067191;29;20041;-76
2024/02/13 15:08:07;;;;;;;3.40;0.93;;;19.70;31.30;;;;;;4067910;29;20099;-76
2024/02/13 15:10:12;;;;;;;3.13;0.80;;;18.80;32.40;;;;;;4070848;29;20059;-77
2024/02/13 15:12:14;;;;;;;3.33;0.90;;;17.20;34.90;;;;;;4070505;29;20056;-77
2024/02/13 15:14:15;;;;;;;4.45;0.90;;;15.90;38.00;;;;;;4068280;29;20052;-78
2024/02/13 15:16:18;;;;;;;3.70;1.00;;;15.40;39.30;;;;;;4069360;29;20056;-77
2024/02/13 15:18:21;;;;;;;2.42;0.90;;;15.60;39.20;;;;;;4068618;29;20048;-78
2024/02/13 15:20:25;;;;;;;3.38;1.30;;;15.70;38.90;;;;;;4059002;29;20084;-78
2024/02/13 15:22:30;;;;;;;3.47;1.30;;;17.20;37.20;;;;;;4063995;29;20095;-77
2024/02/13 15:24:32;;;;;;;3.13;1.53;;;18.00;35.20;;;;;;4064285;29;20052;-77
2024/02/13 15:26:34;;;;;;;2.40;1.30;;;19.70;32.50;;;;;;4064015;29;20100;-78
2024/02/13 15:28:36;;;;;;;2.92;1.00;;;19.10;31.60;;;;;;4063997;29;20054;-77
2024/02/13 15:30:38;;;;;;;4.03;1.10;;;18.90;32.00;;;;;;4063533;29;20485;-78
2024/02/13 15:32:43;;;;;;;3.53;1.00;;;18.50;33.60;;;;;;4063999;29;20052;-77
2024/02/13 15:34:46;;;;;;;4.97;1.15;;;18.20;34.30;;;;;;4064887;29;20144;-78
2024/02/13 15:36:59;;;;;;;3.58;0.90;;;18.70;34.40;;;;;;4061069;29;20100;-79
2024/02/13 15:48:16;;;;;;;3.50;1.30;;;17.40;36.00;;;;;;4061615;29;20063;-78
2024/02/13 15:50:18;;;;;;;3.78;2.03;;;17.50;36.20;;;;;;4064835;29;20469;-80
2024/02/13 15:52:22;;;;;;;3.38;1.60;;;18.40;35.70;;;;;;4065135;29;20067;-78
2024/02/13 15:54:24;;;;;;;3.72;1.35;;;19.50;33.40;;;;;;4059149;29;20477;-78
2024/02/13 15:56:26;;;;;;;2.78;1.10;;;19.40;32.50;;;;;;4065561;29;20111;-78
2024/02/13 15:58:28;;;;;;;3.10;1.10;;;19.90;31.50;;;;;;4067872;29;20498;-78
2024/02/13 16:00:30;;;;;;;2.90;0.90;;;19.50;32.40;;;;;;4067521;29;20052;-80
2024/02/13 16:02:33;;;;;;;4.60;1.20;;;19.00;32.60;;;;;;4047410;29;20084;-78
2024/02/13 16:04:36;;;;;;;3.15;1.15;;;17.80;34.40;;;;;;4045807;29;20057;-79
2024/02/13 16:06:38;;;;;;;3.20;1.02;;;18.00;35.40;;;;;;4050839;29;20105;-78
2024/02/13 16:08:41;;;;;;;8.27;2.47;;;18.60;34.40;;;;;;4050444;29;20163;-78
2024/02/13 16:10:44;;;;;;;5.10;1.23;;;18.30;34.00;;;;;;4052938;29;20057;-79
2024/02/13 16:12:45;;;;;;;3.58;1.08;;;17.10;35.80;;;;;;4040679;29;20575;-79
2024/02/13 16:14:47;;;;;;;3.70;0.85;;;16.60;37.40;;;;;;4049739;29;20087;-80
2024/02/13 16:16:49;;;;;;;3.75;1.00;;;16.10;38.60;;;;;;4047764;29;20116;-78
2024/02/13 16:18:52;;;;;;;3.20;1.08;;;15.50;39.20;;;;;;4050474;29;20061;-79
2024/02/13 16:20:54;;;;;;;4.30;1.30;;;15.20;40.40;;;;;;4045980;29;20055;-81
2024/02/13 16:22:56;;;;;;;3.20;1.00;;;15.00;41.10;;;;;;4038405;29;20049;-80
2024/02/13 16:24:58;;;;;;;4.90;1.30;;;14.80;41.50;;;;;;4050508;29;20083;-79
2024/02/13 16:27:00;;;;;;;3.47;1.13;;;14.50;41.90;;;;;;4053193;29;20061;-79
2024/02/13 16:29:02;;;;;;;3.70;1.05;;;14.30;42.90;;;;;;4049240;29;20497;-78
2024/02/13 16:31:06;;;;;;;4.45;1.38;;;14.10;43.40;;;;;;4051552;29;20052;-79
2024/02/13 16:33:09;;;;;;;4.38;1.45;;;13.90;43.90;;;;;;4038348;29;20061;-77
2024/02/13 16:35:10;;;;;;;4.47;1.50;;;13.70;44.20;;;;;;4043955;29;20108;-79
2024/02/13 16:37:14;;;;;;;15.05;6.53;;;13.50;45.20;;;;;;4043329;29;20048;-79
2024/02/13 16:39:17;;;;;;;10.90;5.55;;;13.30;45.40;;;;;;4053015;29;20053;-77
2024/02/13 16:41:20;;;;;;;5.38;1.67;;;13.20;46.30;;;;;;4051281;29;20088;-77
2024/02/13 16:43:22;;;;;;;4.53;1.63;;;13.10;47.40;;;;;;4043647;29;20077;-78
2024/02/13 16:45:24;;;;;;;5.20;1.50;;;13.00;48.00;;;;;;4054763;29;20132;-78
2024/02/13 16:47:26;;;;;;;4.93;1.50;;;12.90;48.40;;;;;;4049768;29;20057;-80
2024/02/13 16:49:28;;;;;;;6.25;1.38;;;12.80;49.00;;;;;;4047293;29;20467;-78
2024/02/13 16:51:30;;;;;;;5.38;1.40;;;12.70;49.30;;;;;;4044040;29;20389;-79
2024/02/13 16:53:31;;;;;;;4.82;1.60;;;12.50;49.70;;;;;;4053899;29;20067;-77
2024/02/13 16:55:36;;;;;;;4.88;1.35;;;12.40;50.30;;;;;;4050979;29;20059;-79